Time;durP1;ratioP1;P1;durP2;ratioP2;P2;SDS_P1;SDS_P2;PMS_P1;PMS_P2;Temp;Humidity;BMP_temperature;BMP_pressure;BME280_temperature;BME280_humidity;BME280_pressure;Samples;Min_cycle;Max_cycle;Signal;HPM_P1;HPM_P2
2023/06/18 00:02:00;;;;;;;6.77;5.37;;;15.60;99.90;;;;;;5066019;28;20179;-78
2023/06/18 00:04:26;;;;;;;5.10;4.70;;;15.60;99.90;;;;;;5055739;28;20178;-77
2023/06/18 00:06:53;;;;;;;5.40;4.90;;;15.70;99.90;;;;;;5056116;28;20184;-81
2023/06/18 00:09:19;;;;;;;5.67;4.67;;;15.70;99.90;;;;;;5037094;28;20180;-78
2023/06/18 00:11:46;;;;;;;5.10;4.70;;;15.70;99.90;;;;;;5060098;28;20230;-81
2023/06/18 00:14:12;;;;;;;6.17;5.20;;;15.70;99.90;;;;;;5049125;28;20272;-78
2023/06/18 00:16:38;;;;;;;5.00;4.60;;;15.70;99.90;;;;;;5047200;28;20182;-82
2023/06/18 00:19:04;;;;;;;5.20;4.70;;;15.70;99.90;;;;;;5051087;28;20172;-81
2023/06/18 00:21:29;;;;;;;5.40;5.00;;;15.70;99.90;;;;;;5049602;28;20266;-79
2023/06/18 00:23:55;;;;;;;5.13;4.63;;;15.70;99.90;;;;;;5061115;28;20178;-80
2023/06/18 00:26:25;;;;;;;5.30;4.80;;;15.60;99.90;;;;;;5056626;28;20203;-79
2023/06/18 00:28:51;;;;;;;4.87;4.40;;;15.60;99.90;;;;;;5047261;28;20172;-79
2023/06/18 00:31:17;;;;;;;4.87;4.47;;;15.60;99.90;;;;;;5066737;28;20200;-80
2023/06/18 00:33:46;;;;;;;4.73;4.37;;;15.50;99.90;;;;;;5048164;28;20182;-79
2023/06/18 00:36:20;;;;;;;4.60;4.30;;;15.50;99.90;;;;;;5065921;28;20221;-79
2023/06/18 00:38:47;;;;;;;5.43;4.93;;;15.50;99.90;;;;;;5067313;28;20195;-78
2023/06/18 00:41:12;;;;;;;4.83;4.37;;;15.50;99.90;;;;;;5045852;28;20186;-83
2023/06/18 00:43:38;;;;;;;5.10;4.70;;;15.50;99.90;;;;;;5072131;28;20172;-78
2023/06/18 00:46:05;;;;;;;5.13;4.73;;;15.40;99.90;;;;;;5076216;28;20213;-77
2023/06/18 00:48:35;;;;;;;4.87;4.47;;;15.30;99.90;;;;;;5071796;28;20188;-81
2023/06/18 00:51:03;;;;;;;4.90;4.40;;;15.40;99.90;;;;;;5069157;28;20152;-82
2023/06/18 00:53:30;;;;;;;5.23;4.73;;;15.30;99.90;;;;;;5063831;28;20251;-80
2023/06/18 00:55:56;;;;;;;4.90;4.50;;;15.30;99.90;;;;;;5059308;28;20219;-77
2023/06/18 00:58:23;;;;;;;4.90;4.50;;;15.30;99.90;;;;;;5062633;28;20179;-78
2023/06/18 01:00:53;;;;;;;4.80;4.40;;;15.30;99.90;;;;;;5026937;28;20278;-79
2023/06/18 01:03:20;;;;;;;5.77;4.70;;;15.30;99.90;;;;;;5055215;28;20737;-82
2023/06/18 01:05:51;;;;;;;4.73;4.33;;;15.30;99.90;;;;;;5056655;28;20165;-81
2023/06/18 01:08:22;;;;;;;5.07;4.67;;;15.30;99.90;;;;;;5058278;28;20167;-79
2023/06/18 01:11:00;;;;;;;5.37;4.87;;;15.20;99.90;;;;;;5042058;28;20172;-82
2023/06/18 01:13:30;;;;;;;5.77;4.63;;;15.30;99.90;;;;;;5039516;28;20180;-79
2023/06/18 01:15:58;;;;;;;5.33;4.37;;;15.30;99.90;;;;;;5054536;28;20169;-80
2023/06/18 01:18:25;;;;;;;5.20;4.70;;;15.30;99.90;;;;;;5037498;28;20233;-76
2023/06/18 01:20:52;;;;;;;6.43;5.10;;;15.30;99.90;;;;;;5054008;28;20168;-79
2023/06/18 01:23:27;;;;;;;5.50;5.00;;;15.20;99.90;;;;;;5036437;28;20177;-78
2023/06/18 01:25:57;;;;;;;4.90;4.50;;;15.20;99.90;;;;;;5047971;28;20256;-80
2023/06/18 01:28:24;;;;;;;5.10;4.70;;;15.10;99.90;;;;;;5065610;28;20175;-78
2023/06/18 01:30:50;;;;;;;5.83;5.33;;;15.20;99.90;;;;;;5053709;28;20225;-77
2023/06/18 01:33:16;;;;;;;5.40;5.00;;;15.20;99.90;;;;;;5053918;28;20212;-77
2023/06/18 01:35:42;;;;;;;5.27;4.87;;;15.20;99.90;;;;;;5036070;28;20225;-78
2023/06/18 01:38:33;;;;;;;5.77;4.97;;;15.20;99.90;;;;;;5037857;28;20176;-79
2023/06/18 01:41:21;;;;;;;6.10;5.60;;;15.20;99.90;;;;;;5061417;28;20179;-80
2023/06/18 01:43:57;;;;;;;5.70;5.10;;;15.20;99.90;;;;;;5038656;28;20163;-78
2023/06/18 01:46:28;;;;;;;5.40;4.97;;;15.20;99.90;;;;;;5053168;28;20636;-80
2023/06/18 01:49:01;;;;;;;5.77;5.27;;;15.20;99.90;;;;;;5054154;28;20164;-82
2023/06/18 01:51:30;;;;;;;5.40;5.00;;;15.20;99.90;;;;;;5054763;28;20200;-80
2023/06/18 01:53:57;;;;;;;5.53;5.03;;;15.20;99.90;;;;;;5033450;28;20220;-81
2023/06/18 01:56:24;;;;;;;5.07;4.67;;;15.10;99.90;;;;;;5033385;28;21144;-80
2023/06/18 01:58:50;;;;;;;5.53;5.03;;;15.10;99.90;;;;;;5033261;28;20230;-81
2023/06/18 02:01:16;;;;;;;7.00;5.10;;;15.20;99.90;;;;;;5033475;28;20183;-81
2023/06/18 02:03:42;;;;;;;5.70;5.10;;;15.40;99.90;;;;;;5040068;28;20180;-77
2023/06/18 02:06:08;;;;;;;6.60;4.97;;;15.20;99.90;;;;;;5033750;28;20235;-78
2023/06/18 02:08:34;;;;;;;5.00;4.60;;;15.20;99.90;;;;;;5033214;28;20180;-80
2023/06/18 02:11:01;;;;;;;5.13;4.73;;;15.10;99.90;;;;;;5033272;28;20184;-78
2023/06/18 02:13:26;;;;;;;5.70;5.20;;;15.10;99.90;;;;;;5033643;28;20183;-77
2023/06/18 02:15:52;;;;;;;5.90;5.50;;;15.00;99.90;;;;;;5031846;28;20185;-78
2023/06/18 02:18:18;;;;;;;5.57;5.07;;;15.00;99.90;;;;;;5034169;28;20176;-78
2023/06/18 02:20:44;;;;;;;5.87;5.37;;;15.00;99.90;;;;;;5034582;28;20175;-82
2023/06/18 02:23:10;;;;;;;5.50;5.00;;;15.00;99.90;;;;;;5034537;28;20177;-82
2023/06/18 02:25:36;;;;;;;5.40;4.93;;;15.10;99.90;;;;;;5034248;28;20181;-83
2023/06/18 02:28:03;;;;;;;6.13;5.47;;;15.00;99.90;;;;;;5034169;28;20657;-81
2023/06/18 02:30:29;;;;;;;5.90;5.30;;;15.00;99.90;;;;;;5034770;28;20533;-84
2023/06/18 02:33:00;;;;;;;5.60;5.10;;;15.00;99.90;;;;;;5034720;28;20237;-81
2023/06/18 02:35:27;;;;;;;5.53;5.10;;;15.00;99.90;;;;;;5034246;28;20559;-82
2023/06/18 02:37:53;;;;;;;6.07;5.33;;;15.00;99.90;;;;;;5035463;28;20177;-82
2023/06/18 02:40:19;;;;;;;5.50;5.00;;;15.00;99.90;;;;;;5035557;28;20203;-81
2023/06/18 02:42:47;;;;;;;5.93;5.10;;;15.00;99.90;;;;;;5034769;28;20635;-78
2023/06/18 02:45:18;;;;;;;6.13;5.63;;;15.10;99.90;;;;;;5033305;28;20177;-78
2023/06/18 02:47:45;;;;;;;5.90;5.30;;;15.00;99.90;;;;;;5044178;28;20176;-80
2023/06/18 02:50:12;;;;;;;5.83;5.33;;;15.00;99.90;;;;;;5046415;28;20169;-81
2023/06/18 02:52:38;;;;;;;5.67;5.07;;;15.00;99.90;;;;;;5043614;28;20708;-79
2023/06/18 02:55:09;;;;;;;5.60;5.10;;;14.90;99.90;;;;;;5039218;28;20168;-79
2023/06/18 02:57:36;;;;;;;6.60;5.90;;;15.00;99.90;;;;;;5057414;28;20161;-80
2023/06/18 03:00:11;;;;;;;5.53;5.13;;;14.90;99.90;;;;;;5057324;28;20164;-82
2023/06/18 03:02:44;;;;;;;5.27;4.67;;;14.90;99.90;;;;;;5060870;28;20171;-81
2023/06/18 03:05:10;;;;;;;5.67;5.17;;;14.90;99.90;;;;;;5061253;28;20181;-79
2023/06/18 03:07:36;;;;;;;5.53;5.13;;;14.90;99.90;;;;;;5061140;28;20172;-80
2023/06/18 03:10:02;;;;;;;5.60;5.10;;;14.90;99.90;;;;;;5061809;28;20180;-81
2023/06/18 03:12:28;;;;;;;5.80;5.27;;;14.80;99.90;;;;;;5061317;28;20192;-83
2023/06/18 03:14:55;;;;;;;6.30;5.70;;;14.90;99.90;;;;;;5061290;28;20183;-83
2023/06/18 03:17:21;;;;;;;6.80;5.67;;;14.80;99.90;;;;;;5056820;28;20245;-81
2023/06/18 03:19:46;;;;;;;5.20;4.70;;;14.80;99.90;;;;;;5053986;28;20182;-82
2023/06/18 03:22:12;;;;;;;5.60;5.20;;;14.80;99.90;;;;;;5061742;28;20157;-80
2023/06/18 03:24:38;;;;;;;5.67;5.17;;;14.80;99.90;;;;;;5060720;28;20179;-80
2023/06/18 03:27:04;;;;;;;6.10;5.37;;;14.90;99.90;;;;;;5048515;28;20683;-79
2023/06/18 03:29:30;;;;;;;5.60;5.20;;;14.80;99.90;;;;;;5037017;28;20180;-81
2023/06/18 03:31:56;;;;;;;5.77;5.07;;;14.80;99.90;;;;;;5038650;28;20217;-80
2023/06/18 03:34:23;;;;;;;5.63;5.20;;;14.80;99.90;;;;;;5038089;28;20559;-81
2023/06/18 03:36:50;;;;;;;5.60;5.10;;;14.80;99.90;;;;;;5042126;28;20184;-82
2023/06/18 03:39:16;;;;;;;5.50;5.10;;;14.70;99.90;;;;;;5046122;28;20172;-81
2023/06/18 03:41:43;;;;;;;5.93;5.43;;;14.70;99.90;;;;;;5047536;28;20184;-81
2023/06/18 03:44:09;;;;;;;6.03;5.53;;;14.70;99.90;;;;;;5053393;28;20204;-79
2023/06/18 03:46:35;;;;;;;5.07;4.67;;;14.70;99.90;;;;;;5058975;28;20187;-79
2023/06/18 03:49:01;;;;;;;5.87;5.10;;;14.80;99.90;;;;;;5047382;28;20194;-83
2023/06/18 03:51:27;;;;;;;5.37;4.97;;;14.80;99.90;;;;;;5043781;28;20684;-79
2023/06/18 03:53:53;;;;;;;5.23;4.80;;;14.80;99.90;;;;;;5043639;28;20235;-80
2023/06/18 03:56:21;;;;;;;5.33;4.93;;;14.80;99.90;;;;;;5038006;28;20187;-81
2023/06/18 03:58:48;;;;;;;5.40;4.90;;;14.90;99.90;;;;;;5037820;28;20177;-82
2023/06/18 04:01:14;;;;;;;5.63;5.20;;;14.90;99.90;;;;;;5038831;28;20709;-80
2023/06/18 04:03:40;;;;;;;6.67;6.00;;;14.90;99.90;;;;;;5050555;28;20168;-81
2023/06/18 04:06:07;;;;;;;5.97;5.33;;;14.90;99.90;;;;;;5052425;28;20211;-82
2023/06/18 04:08:33;;;;;;;5.97;5.47;;;14.90;99.90;;;;;;5039666;28;20576;-81
2023/06/18 04:11:00;;;;;;;5.67;5.07;;;14.90;99.90;;;;;;5035882;28;20212;-80
2023/06/18 04:13:25;;;;;;;6.63;5.37;;;15.00;99.90;;;;;;5036671;28;20244;-82
2023/06/18 04:15:51;;;;;;;6.07;5.27;;;15.00;99.90;;;;;;5037314;28;20208;-83
2023/06/18 04:18:17;;;;;;;5.53;5.03;;;15.00;99.90;;;;;;5038341;28;20172;-83
2023/06/18 04:20:44;;;;;;;6.67;4.90;;;15.00;99.90;;;;;;5036655;28;20628;-82
2023/06/18 04:23:12;;;;;;;6.23;5.50;;;15.10;99.90;;;;;;5037289;28;20220;-82
2023/06/18 04:25:38;;;;;;;5.70;5.20;;;15.10;99.90;;;;;;5043200;28;20172;-82
2023/06/18 04:28:04;;;;;;;6.10;5.50;;;15.10;99.90;;;;;;5053946;28;20206;-80
2023/06/18 04:30:30;;;;;;;5.37;4.93;;;15.10;99.90;;;;;;5049990;28;20200;-78
2023/06/18 04:32:56;;;;;;;6.10;5.60;;;15.20;99.90;;;;;;5034771;28;20619;-79
2023/06/18 04:35:22;;;;;;;5.80;5.27;;;15.20;99.90;;;;;;5035489;28;20215;-79
2023/06/18 04:37:47;;;;;;;6.20;5.20;;;15.30;99.90;;;;;;5040224;28;20177;-79
2023/06/18 04:40:13;;;;;;;5.80;5.30;;;15.40;99.90;;;;;;5054311;28;20536;-80
2023/06/18 04:42:39;;;;;;;5.10;4.70;;;15.50;99.90;;;;;;5035476;28;20324;-78
2023/06/18 04:45:05;;;;;;;5.73;5.13;;;15.50;99.90;;;;;;5034899;28;20177;-80
2023/06/18 04:47:32;;;;;;;5.83;5.27;;;15.50;99.90;;;;;;5034006;28;20188;-78
2023/06/18 04:49:58;;;;;;;5.70;5.07;;;15.50;99.90;;;;;;5041252;28;20184;-79
2023/06/18 04:52:23;;;;;;;5.83;5.33;;;15.50;99.90;;;;;;5037907;28;20224;-79
2023/06/18 04:54:52;;;;;;;5.60;5.10;;;15.60;99.90;;;;;;5055241;28;20205;-80
2023/06/18 04:57:19;;;;;;;5.30;4.90;;;15.60;99.90;;;;;;5053580;28;20169;-80
2023/06/18 04:59:45;;;;;;;5.67;5.13;;;15.70;99.90;;;;;;5042309;28;20179;-79
2023/06/18 05:02:11;;;;;;;5.63;5.13;;;15.70;99.90;;;;;;5035285;28;20175;-81
2023/06/18 05:04:36;;;;;;;5.03;4.63;;;15.80;99.90;;;;;;5034218;28;20632;-78
2023/06/18 05:07:02;;;;;;;5.70;5.20;;;15.90;99.90;;;;;;5034230;28;20188;-79
2023/06/18 05:09:30;;;;;;;6.00;4.80;;;15.90;99.90;;;;;;5035068;28;20176;-78
2023/06/18 05:11:56;;;;;;;5.50;5.00;;;16.00;99.90;;;;;;5034969;28;20262;-78
2023/06/18 05:14:22;;;;;;;5.73;5.20;;;16.10;99.90;;;;;;5033480;28;20181;-77
2023/06/18 05:16:48;;;;;;;5.83;5.33;;;16.20;99.90;;;;;;5036773;28;20177;-80
2023/06/18 05:19:13;;;;;;;6.53;5.53;;;16.30;99.90;;;;;;5034210;28;20173;-79
2023/06/18 05:21:39;;;;;;;5.97;5.37;;;16.30;99.90;;;;;;5035981;28;20584;-80
2023/06/18 05:24:07;;;;;;;4.90;4.50;;;16.40;99.90;;;;;;5035361;28;20187;-82
2023/06/18 05:26:33;;;;;;;5.40;4.80;;;16.50;99.90;;;;;;5033655;28;20190;-78
2023/06/18 05:28:59;;;;;;;6.23;5.53;;;16.60;99.90;;;;;;5034713;28;20242;-79
2023/06/18 05:31:26;;;;;;;5.40;4.90;;;16.70;99.90;;;;;;5034709;28;20232;-79
2023/06/18 05:33:51;;;;;;;8.37;5.53;;;16.70;99.90;;;;;;5032744;28;20239;-81
2023/06/18 05:36:17;;;;;;;6.20;5.70;;;16.70;99.90;;;;;;5035066;28;20176;-79
2023/06/18 05:38:43;;;;;;;5.33;4.90;;;16.90;99.90;;;;;;5037858;28;20205;-79
2023/06/18 05:41:09;;;;;;;5.33;4.83;;;17.00;99.80;;;;;;5036524;28;20205;-81
2023/06/18 05:43:34;;;;;;;6.30;5.33;;;17.10;99.70;;;;;;5036609;28;20628;-83
2023/06/18 05:46:00;;;;;;;5.70;5.10;;;17.20;99.60;;;;;;5037325;28;20195;-81
2023/06/18 05:48:26;;;;;;;5.40;4.90;;;17.30;99.60;;;;;;5041284;28;20214;-81
2023/06/18 05:50:52;;;;;;;5.70;5.20;;;17.40;99.40;;;;;;5035100;28;20177;-82
2023/06/18 05:53:19;;;;;;;5.90;5.40;;;17.40;99.30;;;;;;5034096;28;20263;-81
2023/06/18 05:55:44;;;;;;;5.90;5.40;;;17.40;99.10;;;;;;5049182;28;20180;-79
2023/06/18 05:58:10;;;;;;;6.73;5.10;;;17.40;99.30;;;;;;5045030;28;20186;-81
2023/06/18 06:00:36;;;;;;;6.13;5.53;;;17.40;99.20;;;;;;5037807;28;20171;-80
2023/06/18 06:03:02;;;;;;;5.87;5.37;;;17.50;99.30;;;;;;5040262;28;20183;-78
2023/06/18 06:05:27;;;;;;;6.20;5.60;;;17.60;99.20;;;;;;5052042;28;20188;-82
2023/06/18 06:07:53;;;;;;;5.43;5.03;;;17.60;99.10;;;;;;5037702;28;20180;-82
2023/06/18 06:10:19;;;;;;;5.30;4.90;;;17.70;99.00;;;;;;5020721;28;20181;-81
2023/06/18 06:12:45;;;;;;;7.13;5.13;;;17.80;99.30;;;;;;5016523;28;20234;-81
2023/06/18 06:15:11;;;;;;;6.00;5.40;;;17.90;99.10;;;;;;5023233;28;20168;-82
2023/06/18 06:17:37;;;;;;;6.23;5.40;;;18.00;98.90;;;;;;5028394;28;20192;-79
2023/06/18 06:20:04;;;;;;;5.73;5.20;;;18.10;98.90;;;;;;5021609;28;20501;-78
2023/06/18 06:22:30;;;;;;;6.83;5.27;;;18.20;98.80;;;;;;5027154;28;20176;-78
2023/06/18 06:24:55;;;;;;;5.77;5.27;;;18.30;98.90;;;;;;5015255;28;20544;-77
2023/06/18 06:27:21;;;;;;;5.90;5.40;;;18.30;98.90;;;;;;5014397;28;20193;-78
2023/06/18 06:29:47;;;;;;;6.40;5.80;;;18.50;98.90;;;;;;5015191;28;20251;-77
2023/06/18 06:32:13;;;;;;;5.60;5.20;;;18.60;98.70;;;;;;5014523;28;20268;-78
2023/06/18 06:34:39;;;;;;;5.77;5.27;;;18.70;98.70;;;;;;5013586;28;20177;-79
2023/06/18 06:37:05;;;;;;;5.40;5.00;;;18.70;98.70;;;;;;5016817;28;20537;-77
2023/06/18 06:39:30;;;;;;;6.33;5.83;;;18.70;98.30;;;;;;5018277;28;20184;-79
2023/06/18 06:41:56;;;;;;;5.37;4.97;;;18.90;98.20;;;;;;5017970;28;20536;-79
2023/06/18 06:44:22;;;;;;;6.10;5.60;;;19.10;98.10;;;;;;5018802;28;20192;-78
2023/06/18 06:46:48;;;;;;;6.33;5.70;;;19.20;97.90;;;;;;5032296;28;20185;-78
2023/06/18 06:49:13;;;;;;;5.47;5.00;;;19.30;97.70;;;;;;5030633;28;20191;-79
2023/06/18 06:51:39;;;;;;;5.97;5.50;;;19.40;97.50;;;;;;5028836;28;20728;-79
2023/06/18 06:54:05;;;;;;;5.17;4.77;;;19.50;97.50;;;;;;5019925;28;20361;-79
2023/06/18 06:56:32;;;;;;;5.30;4.87;;;19.70;97.30;;;;;;5017370;28;20649;-80
2023/06/18 06:58:58;;;;;;;5.40;4.90;;;19.80;97.50;;;;;;5017049;28;20180;-78
2023/06/18 07:01:25;;;;;;;6.43;5.10;;;19.90;97.30;;;;;;5028526;28;20200;-79
2023/06/18 07:03:50;;;;;;;5.90;5.37;;;20.00;97.20;;;;;;5029243;28;20169;-78
2023/06/18 07:06:16;;;;;;;5.50;5.00;;;20.20;97.30;;;;;;5020040;28;20531;-76
2023/06/18 07:08:42;;;;;;;5.90;5.30;;;20.20;96.60;;;;;;5019027;28;20216;-78
2023/06/18 07:11:08;;;;;;;5.60;5.10;;;20.20;96.30;;;;;;5015092;28;20184;-79
2023/06/18 07:13:34;;;;;;;6.00;5.50;;;20.10;95.90;;;;;;5017030;28;20543;-77
2023/06/18 07:16:00;;;;;;;5.47;5.07;;;20.20;95.60;;;;;;5016497;28;20227;-77
2023/06/18 07:18:27;;;;;;;6.23;5.63;;;20.30;95.90;;;;;;5017004;28;20252;-77
2023/06/18 07:20:53;;;;;;;5.20;4.77;;;20.40;95.90;;;;;;5016454;28;20171;-81
2023/06/18 07:23:19;;;;;;;6.40;5.63;;;20.70;95.80;;;;;;5015709;28;20275;-80
2023/06/18 07:25:45;;;;;;;5.60;5.10;;;20.70;95.50;;;;;;5021671;28;20244;-80
2023/06/18 07:28:10;;;;;;;5.17;4.77;;;20.80;95.40;;;;;;5037661;28;20182;-80
2023/06/18 07:30:36;;;;;;;7.60;5.60;;;20.80;95.70;;;;;;5019705;28;20178;-79
2023/06/18 07:33:02;;;;;;;5.07;4.67;;;20.80;95.00;;;;;;5019379;28;20213;-80
2023/06/18 07:35:28;;;;;;;5.80;5.30;;;20.80;94.80;;;;;;5018810;28;20181;-80
2023/06/18 07:37:53;;;;;;;5.60;5.20;;;20.90;94.90;;;;;;5017021;28;20681;-81
2023/06/18 07:40:19;;;;;;;5.50;5.10;;;21.10;94.80;;;;;;5016629;28;20181;-81
2023/06/18 07:42:45;;;;;;;5.73;5.13;;;21.10;94.80;;;;;;5024680;28;20268;-80
2023/06/18 07:45:11;;;;;;;5.17;4.77;;;21.10;94.90;;;;;;5017981;28;20288;-81
2023/06/18 07:47:37;;;;;;;5.00;4.60;;;21.20;94.90;;;;;;5016360;28;20184;-82
2023/06/18 07:50:03;;;;;;;5.93;5.43;;;21.40;94.90;;;;;;5022623;28;20186;-82
2023/06/18 07:52:30;;;;;;;7.23;6.57;;;21.50;94.90;;;;;;5031434;28;20272;-79
2023/06/18 07:54:56;;;;;;;5.87;5.23;;;21.60;94.60;;;;;;5027207;28;20275;-83
2023/06/18 07:57:21;;;;;;;5.77;5.27;;;21.60;94.50;;;;;;5021073;28;20207;-81
2023/06/18 07:59:47;;;;;;;5.90;5.30;;;21.70;94.60;;;;;;5020538;28;20605;-81
2023/06/18 08:02:13;;;;;;;4.90;4.60;;;21.80;94.60;;;;;;5019613;28;20544;-83
2023/06/18 08:04:39;;;;;;;5.70;5.10;;;21.90;94.30;;;;;;5037177;28;20188;-80
2023/06/18 08:07:05;;;;;;;5.77;5.27;;;22.10;94.30;;;;;;5043692;28;20220;-81
2023/06/18 08:09:31;;;;;;;6.13;5.53;;;22.20;93.40;;;;;;5025257;28;20179;-79
2023/06/18 08:11:57;;;;;;;6.25;5.63;;;22.30;93.70;;;;;;5037673;28;20208;-81
2023/06/18 08:14:23;;;;;;;5.43;5.03;;;22.50;93.60;;;;;;5036133;28;20172;-81
2023/06/18 08:16:49;;;;;;;6.33;5.13;;;22.60;94.10;;;;;;5035325;28;20181;-81
2023/06/18 08:19:16;;;;;;;5.55;5.05;;;22.60;94.00;;;;;;5035961;28;20195;-81
2023/06/18 08:21:42;;;;;;;5.30;4.90;;;22.80;92.90;;;;;;5018764;28;20273;-81
2023/06/18 08:24:08;;;;;;;5.45;5.03;;;22.80;92.90;;;;;;5017979;28;20184;-80
2023/06/18 08:26:33;;;;;;;6.13;5.55;;;22.90;92.90;;;;;;5035702;28;20234;-81
2023/06/18 08:28:59;;;;;;;5.28;4.80;;;23.00;93.30;;;;;;5017642;28;20641;-80
2023/06/18 08:31:25;;;;;;;5.50;5.10;;;23.10;93.10;;;;;;5018759;28;20176;-82
2023/06/18 08:33:51;;;;;;;6.40;5.90;;;23.20;93.40;;;;;;5017723;28;20584;-79
2023/06/18 08:36:19;;;;;;;5.80;5.30;;;23.30;94.20;;;;;;5035103;28;20165;-80
2023/06/18 08:38:45;;;;;;;5.30;4.90;;;23.30;92.70;;;;;;5034856;28;20223;-79
2023/06/18 08:41:11;;;;;;;6.13;5.60;;;23.30;93.00;;;;;;5035208;28;20169;-76
2023/06/18 08:43:38;;;;;;;6.38;5.85;;;23.40;93.10;;;;;;5034963;28;20172;-77
2023/06/18 08:46:14;;;;;;;8.88;5.43;;;23.40;93.40;;;;;;5034992;28;20172;-77
2023/06/18 08:49:00;;;;;;;5.72;5.22;;;23.50;93.90;;;;;;5036583;28;20161;-76
2023/06/18 08:51:26;;;;;;;6.35;5.85;;;23.40;93.40;;;;;;5034959;28;20168;-76
2023/06/18 08:53:52;;;;;;;5.82;5.32;;;23.40;93.10;;;;;;5034589;28;20223;-76
2023/06/18 08:56:21;;;;;;;7.18;6.57;;;23.50;92.70;;;;;;5016819;28;20181;-76
2023/06/18 08:58:55;;;;;;;5.95;5.45;;;23.60;93.10;;;;;;5034668;28;20183;-76
2023/06/18 09:01:21;;;;;;;5.57;5.18;;;23.60;92.90;;;;;;5034695;28;20175;-77
2023/06/18 09:03:48;;;;;;;6.68;6.07;;;23.70;93.60;;;;;;5037178;28;20176;-76
2023/06/18 09:06:14;;;;;;;5.90;5.40;;;23.90;93.20;;;;;;5035042;28;20169;-75
2023/06/18 09:08:40;;;;;;;5.88;5.22;;;24.00;93.60;;;;;;5034615;28;20180;-77
2023/06/18 09:11:06;;;;;;;6.43;5.85;;;24.10;93.00;;;;;;5034097;28;20215;-76
2023/06/18 09:13:33;;;;;;;6.05;5.45;;;24.10;92.90;;;;;;5033997;28;20211;-78
2023/06/18 09:16:02;;;;;;;5.72;5.22;;;24.10;92.10;;;;;;5034265;28;20179;-78
2023/06/18 09:18:28;;;;;;;6.40;5.57;;;24.20;92.90;;;;;;5054345;28;20173;-76
2023/06/18 09:20:54;;;;;;;5.75;5.30;;;24.30;93.40;;;;;;5016747;28;20183;-76
2023/06/18 09:23:19;;;;;;;6.00;5.50;;;24.40;94.10;;;;;;5034248;28;20176;-76
2023/06/18 09:25:50;;;;;;;5.85;5.22;;;24.50;93.80;;;;;;5034428;28;20667;-77
2023/06/18 09:28:18;;;;;;;5.32;4.82;;;24.50;93.50;;;;;;5042211;28;20168;-78
2023/06/18 09:30:56;;;;;;;5.38;5.00;;;24.50;93.40;;;;;;5048494;28;20572;-76
2023/06/18 09:33:34;;;;;;;6.95;5.35;;;24.50;93.80;;;;;;5034162;28;20726;-77
2023/06/18 09:36:01;;;;;;;6.60;6.00;;;24.50;93.60;;;;;;5016163;28;20540;-76
2023/06/18 09:38:38;;;;;;;7.18;6.57;;;24.40;94.00;;;;;;5034389;28;20176;-77
2023/06/18 09:41:17;;;;;;;6.25;5.72;;;24.40;94.20;;;;;;5038306;28;20167;-76
2023/06/18 09:43:47;;;;;;;5.90;5.40;;;24.40;94.10;;;;;;5038392;28;20190;-76
2023/06/18 09:46:13;;;;;;;7.05;6.55;;;24.50;93.70;;;;;;5039406;28;20196;-76
2023/06/18 09:48:45;;;;;;;8.68;7.97;;;24.50;93.40;;;;;;5041279;28;20553;-76
2023/06/18 09:51:13;;;;;;;7.97;6.63;;;24.60;92.90;;;;;;5037903;28;20253;-80
2023/06/18 09:53:38;;;;;;;6.45;5.85;;;24.40;92.90;;;;;;5037456;28;20220;-77
2023/06/18 09:56:14;;;;;;;6.38;5.78;;;24.80;92.90;;;;;;5033609;28;20263;-78
2023/06/18 09:58:48;;;;;;;6.40;5.35;;;24.90;92.90;;;;;;5033595;28;20681;-77
2023/06/18 10:01:15;;;;;;;5.82;5.32;;;24.90;92.50;;;;;;5033347;28;20173;-77
2023/06/18 10:03:42;;;;;;;5.43;5.03;;;24.80;91.20;;;;;;5033498;28;20169;-77
2023/06/18 10:06:19;;;;;;;6.15;5.65;;;24.80;91.40;;;;;;5033548;28;20184;-78
2023/06/18 10:08:47;;;;;;;5.82;5.18;;;24.90;91.20;;;;;;5016638;28;20175;-75
2023/06/18 10:11:14;;;;;;;5.28;4.88;;;24.90;91.30;;;;;;5035270;28;20168;-78
2023/06/18 10:13:50;;;;;;;5.47;5.07;;;24.90;90.90;;;;;;5036946;28;20195;-78
2023/06/18 10:16:17;;;;;;;5.13;4.72;;;24.80;91.00;;;;;;5029891;28;20620;-77
2023/06/18 10:19:11;;;;;;;6.45;5.63;;;24.90;90.60;;;;;;5033982;28;20175;-76
2023/06/18 10:21:46;;;;;;;5.68;5.13;;;25.10;89.70;;;;;;5028582;28;20184;-77
2023/06/18 10:24:20;;;;;;;5.72;5.22;;;25.20;90.00;;;;;;5033470;28;20686;-77
2023/06/18 10:26:46;;;;;;;6.18;5.68;;;25.10;87.50;;;;;;5033149;28;20263;-76
2023/06/18 10:29:12;;;;;;;5.88;5.28;;;25.30;89.30;;;;;;5033647;28;20203;-76
2023/06/18 10:31:39;;;;;;;5.40;5.00;;;25.40;85.40;;;;;;5033380;28;20620;-77
2023/06/18 10:34:05;;;;;;;5.15;4.75;;;25.60;86.00;;;;;;5015387;28;20184;-79
2023/06/18 10:36:32;;;;;;;5.88;5.18;;;25.70;85.10;;;;;;5034080;28;20173;-78
2023/06/18 10:38:58;;;;;;;6.63;5.07;;;25.70;82.50;;;;;;5033603;28;20203;-76
2023/06/18 10:41:25;;;;;;;6.20;5.68;;;25.80;80.40;;;;;;5034141;28;20172;-77
2023/06/18 10:43:52;;;;;;;5.63;5.10;;;25.80;84.10;;;;;;5033663;28;20696;-76
2023/06/18 10:46:18;;;;;;;5.90;5.40;;;25.80;82.50;;;;;;5034137;28;20173;-76
2023/06/18 10:49:16;;;;;;;5.00;4.65;;;25.90;84.20;;;;;;5030975;28;20334;-77
2023/06/18 10:52:12;;;;;;;5.32;4.30;;;26.00;84.70;;;;;;5015372;28;20557;-76
2023/06/18 10:54:38;;;;;;;4.97;4.60;;;26.10;82.40;;;;;;5046451;28;20224;-78
2023/06/18 10:57:04;;;;;;;5.20;4.90;;;26.10;83.10;;;;;;5036114;28;20173;-77
2023/06/18 10:59:46;;;;;;;6.82;5.32;;;26.20;82.90;;;;;;5034364;28;20172;-75
2023/06/18 11:02:15;;;;;;;5.95;5.20;;;26.20;84.10;;;;;;5036937;28;20170;-77
2023/06/18 11:04:41;;;;;;;6.47;5.47;;;26.20;84.70;;;;;;5020288;28;20192;-77
2023/06/18 11:07:23;;;;;;;5.38;4.97;;;26.10;84.30;;;;;;5035909;28;20188;-75
2023/06/18 11:09:53;;;;;;;5.88;4.80;;;26.10;85.10;;;;;;5034773;28;20173;-80
2023/06/18 11:12:24;;;;;;;5.57;5.18;;;26.00;87.40;;;;;;5035506;28;20223;-78
2023/06/18 11:15:18;;;;;;;5.65;4.97;;;25.90;85.40;;;;;;5035678;28;20244;-79
2023/06/18 11:17:50;;;;;;;5.40;5.00;;;26.00;86.30;;;;;;5018509;28;20176;-81
2023/06/18 11:20:18;;;;;;;4.95;4.65;;;26.10;86.30;;;;;;5033660;28;20172;-78
2023/06/18 11:22:44;;;;;;;5.20;4.80;;;26.40;85.40;;;;;;5035299;28;20176;-78
2023/06/18 11:25:13;;;;;;;5.55;5.15;;;26.50;84.60;;;;;;5019140;28;20188;-78
2023/06/18 11:27:41;;;;;;;5.30;4.90;;;26.50;85.20;;;;;;5036930;28;20581;-78
2023/06/18 11:30:09;;;;;;;5.60;5.10;;;26.20;84.10;;;;;;5038168;28;20602;-79
2023/06/18 11:32:34;;;;;;;5.43;5.03;;;26.20;82.50;;;;;;5040226;28;20562;-77
2023/06/18 11:35:00;;;;;;;5.05;4.70;;;26.20;82.40;;;;;;5037497;28;20250;-77
2023/06/18 11:37:27;;;;;;;5.13;4.63;;;26.20;80.80;;;;;;5037583;28;20211;-77
2023/06/18 11:39:55;;;;;;;5.25;4.85;;;26.20;80.40;;;;;;5038278;28;20169;-79
2023/06/18 11:42:21;;;;;;;5.43;4.95;;;26.20;80.30;;;;;;5040346;28;20189;-77
2023/06/18 11:44:49;;;;;;;5.88;5.47;;;26.40;83.60;;;;;;5039338;28;20184;-78
2023/06/18 11:47:15;;;;;;;5.82;5.22;;;26.50;83.20;;;;;;5036935;28;20200;-76
2023/06/18 11:49:45;;;;;;;5.32;4.82;;;26.50;80.30;;;;;;5037679;28;20200;-77
2023/06/18 11:52:14;;;;;;;5.50;5.00;;;26.50;81.10;;;;;;5035109;28;20211;-76
2023/06/18 11:54:41;;;;;;;5.95;5.45;;;26.50;82.20;;;;;;5018915;28;20589;-77
2023/06/18 11:57:10;;;;;;;6.60;5.65;;;26.50;82.00;;;;;;5036452;28;20628;-76
2023/06/18 11:59:36;;;;;;;7.88;5.13;;;26.60;80.60;;;;;;5019398;28;20208;-76
2023/06/18 12:02:36;;;;;;;5.60;5.10;;;26.70;79.50;;;;;;5036489;28;20172;-77
2023/06/18 12:05:02;;;;;;;4.80;4.47;;;26.70;77.20;;;;;;5035307;28;20201;-77
2023/06/18 12:07:29;;;;;;;4.70;4.38;;;26.80;76.90;;;;;;5035865;28;20173;-76
2023/06/18 12:09:57;;;;;;;4.60;4.30;;;26.90;75.10;;;;;;5036756;28;20175;-77
2023/06/18 12:12:31;;;;;;;5.22;4.78;;;26.90;74.20;;;;;;5036220;28;20222;-78
2023/06/18 12:15:00;;;;;;;5.13;4.72;;;26.90;74.90;;;;;;5036195;28;20256;-76
2023/06/18 12:17:54;;;;;;;5.35;4.95;;;27.00;74.50;;;;;;5022240;28;20259;-78
2023/06/18 12:20:24;;;;;;;9.35;4.38;;;27.20;75.50;;;;;;5017774;28;20185;-79
2023/06/18 12:22:51;;;;;;;5.20;4.70;;;27.20;74.70;;;;;;5017285;28;20518;-78
2023/06/18 12:25:21;;;;;;;7.78;5.28;;;27.10;74.30;;;;;;5017505;28;20180;-79
2023/06/18 12:27:49;;;;;;;5.32;4.93;;;27.20;74.00;;;;;;5041507;28;20660;-77
2023/06/18 12:30:15;;;;;;;5.30;4.80;;;27.30;71.20;;;;;;5021202;28;20177;-78
2023/06/18 12:32:41;;;;;;;6.15;5.05;;;27.30;72.00;;;;;;5030059;28;20212;-77
2023/06/18 12:35:12;;;;;;;4.93;4.53;;;27.20;74.90;;;;;;5036658;28;20632;-78
2023/06/18 12:37:43;;;;;;;5.53;4.82;;;27.30;73.00;;;;;;5036185;28;20179;-78
2023/06/18 12:40:23;;;;;;;4.72;4.30;;;27.30;72.70;;;;;;5041469;28;20184;-77
2023/06/18 12:42:49;;;;;;;4.85;4.55;;;27.30;75.00;;;;;;5055489;28;20195;-79
2023/06/18 12:45:26;;;;;;;5.07;4.57;;;27.20;74.50;;;;;;5055824;28;20223;-78
2023/06/18 12:47:53;;;;;;;4.38;4.07;;;27.20;74.20;;;;;;5056512;28;20516;-77
2023/06/18 12:50:27;;;;;;;4.82;4.53;;;27.20;74.50;;;;;;5056030;28;20165;-78
2023/06/18 12:52:53;;;;;;;4.97;4.68;;;27.30;75.60;;;;;;5032262;28;20240;-78